Time;durP1;ratioP1;P1;durP2;ratioP2;P2;SDS_P1;SDS_P2;PMS_P1;PMS_P2;Temp;Humidity;BMP_temperature;BMP_pressure;BME280_temperature;BME280_humidity;BME280_pressure;Samples;Min_cycle;Max_cycle;Signal;HPM_P1;HPM_P2
2022/05/07 00:01:55;;;;;;;24.03;14.33;;;11.80;99.90;;;;;;5069120;28;20515;-70
2022/05/07 00:04:20;;;;;;;11.40;7.90;;;11.80;99.90;;;;;;5070488;28;20226;-70
2022/05/07 00:06:46;;;;;;;13.03;7.27;;;11.80;99.90;;;;;;5070187;28;20770;-71
2022/05/07 00:09:11;;;;;;;85.63;44.50;;;11.80;99.90;;;;;;5069565;28;20182;-70
2022/05/07 00:11:37;;;;;;;30.03;16.40;;;11.70;99.90;;;;;;5069522;28;20615;-71
2022/05/07 00:14:03;;;;;;;24.10;13.27;;;11.40;99.90;;;;;;5069292;28;20204;-71
2022/05/07 00:19:12;;;;;;;12.83;7.20;;;11.20;99.90;;;;;;5069479;28;20249;-69
2022/05/07 00:21:38;;;;;;;9.40;5.80;;;11.20;99.90;;;;;;5068281;28;20418;-71
2022/05/07 00:24:04;;;;;;;10.07;5.60;;;11.10;99.90;;;;;;5067948;28;20268;-70
2022/05/07 00:26:29;;;;;;;12.10;5.27;;;11.10;99.90;;;;;;5069295;28;20839;-71
2022/05/07 00:28:55;;;;;;;9.60;5.40;;;11.10;99.90;;;;;;5069573;28;20264;-70
2022/05/07 00:31:20;;;;;;;9.60;5.97;;;11.20;99.90;;;;;;5068726;28;20235;-70
2022/05/07 00:33:46;;;;;;;11.57;5.57;;;11.20;99.90;;;;;;5068694;28;20235;-71
2022/05/07 00:36:12;;;;;;;15.10;8.60;;;11.40;99.90;;;;;;5069332;28;20215;-70
2022/05/07 00:38:37;;;;;;;28.27;15.77;;;11.50;99.90;;;;;;5066560;28;20187;-70
2022/05/07 00:41:03;;;;;;;101.03;53.00;;;11.50;99.90;;;;;;5056647;28;20283;-68
2022/05/07 00:43:36;;;;;;;128.50;65.47;;;11.60;99.90;;;;;;5068466;28;20213;-71
2022/05/07 00:46:02;;;;;;;181.87;88.70;;;11.70;99.90;;;;;;5060688;28;20196;-70
2022/05/07 00:48:28;;;;;;;213.23;110.63;;;11.70;99.90;;;;;;5069181;28;20461;-71
2022/05/07 00:53:39;;;;;;;339.00;162.13;;;11.60;99.90;;;;;;5068833;28;20933;-71
2022/05/07 00:56:06;;;;;;;356.13;178.97;;;11.50;99.90;;;;;;5068537;28;20807;-70
2022/05/07 00:58:31;;;;;;;326.87;160.43;;;11.20;99.90;;;;;;5069299;28;20446;-71
2022/05/07 01:00:57;;;;;;;277.10;139.80;;;11.30;99.90;;;;;;5068487;28;20418;-71
2022/05/07 01:03:23;;;;;;;275.17;136.43;;;11.30;99.90;;;;;;5068551;28;20743;-70
2022/05/07 01:05:49;;;;;;;214.60;107.80;;;11.30;99.90;;;;;;5069026;28;20188;-70
2022/05/07 01:08:15;;;;;;;185.93;94.73;;;11.20;99.90;;;;;;5068482;28;20169;-71
2022/05/07 01:10:41;;;;;;;139.90;70.60;;;11.20;99.90;;;;;;5068365;28;20931;-71
2022/05/07 01:13:07;;;;;;;125.43;61.50;;;11.10;99.90;;;;;;5066924;28;20282;-71
2022/05/07 01:15:45;;;;;;;120.53;59.60;;;11.10;99.90;;;;;;5068093;28;20208;-71
2022/05/07 01:18:12;;;;;;;111.03;55.60;;;11.10;99.90;;;;;;5059945;28;20434;-71
2022/05/07 01:20:38;;;;;;;95.73;49.83;;;11.10;99.90;;;;;;5068639;28;20476;-70
2022/05/07 01:23:04;;;;;;;82.37;44.40;;;11.00;99.90;;;;;;5067156;28;20499;-70
2022/05/07 01:25:30;;;;;;;71.70;37.10;;;11.00;99.90;;;;;;5068160;28;20977;-70
2022/05/07 01:27:55;;;;;;;68.33;37.87;;;10.90;99.90;;;;;;5068211;28;20646;-71
2022/05/07 01:30:22;;;;;;;68.20;34.27;;;10.80;99.90;;;;;;5068665;28;20234;-70
2022/05/07 01:32:48;;;;;;;65.90;32.43;;;10.80;99.90;;;;;;5066840;28;20208;-70
2022/05/07 01:35:13;;;;;;;54.73;30.63;;;10.60;99.90;;;;;;5067861;28;20501;-71
2022/05/07 01:37:39;;;;;;;54.10;29.37;;;10.80;99.90;;;;;;5067664;28;20188;-70
2022/05/07 01:40:05;;;;;;;57.93;29.27;;;10.40;99.90;;;;;;5066683;28;20173;-70
2022/05/07 01:42:30;;;;;;;41.50;23.50;;;10.30;99.90;;;;;;5068548;28;20209;-71
2022/05/07 01:44:56;;;;;;;31.50;19.10;;;10.20;99.90;;;;;;5067964;28;20858;-70
2022/05/07 01:50:06;;;;;;;34.47;17.93;;;10.20;99.90;;;;;;5066853;28;20269;-70
2022/05/07 01:52:32;;;;;;;30.57;17.00;;;10.10;99.90;;;;;;5066488;28;20927;-70
2022/05/07 01:54:57;;;;;;;30.50;16.57;;;10.10;99.90;;;;;;5064705;28;20466;-71
2022/05/07 01:57:23;;;;;;;22.80;13.97;;;10.10;99.90;;;;;;5067054;28;20188;-71
2022/05/07 01:59:48;;;;;;;16.90;10.97;;;10.20;99.90;;;;;;5067681;28;20238;-70
2022/05/07 02:02:14;;;;;;;16.30;9.07;;;10.10;99.90;;;;;;5066158;28;20200;-71
2022/05/07 02:04:39;;;;;;;14.20;8.20;;;10.10;99.90;;;;;;5068077;28;20199;-69
2022/05/07 02:07:05;;;;;;;13.13;8.20;;;10.10;99.90;;;;;;5067599;28;20267;-71
2022/05/07 02:09:31;;;;;;;9.80;6.80;;;10.10;99.90;;;;;;5068044;28;20176;-71
2022/05/07 02:11:56;;;;;;;16.73;7.43;;;10.00;99.90;;;;;;5066250;28;20176;-71
2022/05/07 02:14:22;;;;;;;11.33;7.43;;;9.90;99.90;;;;;;5065958;28;20258;-71
2022/05/07 02:16:47;;;;;;;13.77;7.57;;;9.90;99.90;;;;;;5067330;28;20172;-71
2022/05/07 02:19:13;;;;;;;14.57;7.07;;;9.80;99.90;;;;;;5067625;28;20180;-71
2022/05/07 02:21:38;;;;;;;11.77;6.73;;;9.80;99.90;;;;;;5067708;28;20580;-71
2022/05/07 02:24:04;;;;;;;10.40;5.87;;;9.80;99.90;;;;;;5067329;28;20314;-71
2022/05/07 02:26:30;;;;;;;13.33;5.87;;;9.80;99.90;;;;;;5067550;28;20192;-71
2022/05/07 02:28:55;;;;;;;7.40;5.23;;;9.80;99.90;;;;;;5066996;28;20655;-71
2022/05/07 02:31:21;;;;;;;7.13;5.03;;;9.80;99.90;;;;;;5067052;28;20172;-71
2022/05/07 02:33:46;;;;;;;7.13;5.40;;;9.90;99.90;;;;;;5066470;28;20266;-71
2022/05/07 02:36:12;;;;;;;7.93;5.07;;;9.90;99.90;;;;;;5067355;28;20227;-70
2022/05/07 02:38:38;;;;;;;8.93;5.00;;;10.00;99.90;;;;;;5067160;28;20188;-71
2022/05/07 02:43:48;;;;;;;7.27;4.90;;;10.00;99.90;;;;;;5066637;28;20909;-72
2022/05/07 02:46:14;;;;;;;6.83;5.33;;;9.90;99.90;;;;;;5066886;28;20434;-71
2022/05/07 02:48:44;;;;;;;7.10;4.60;;;9.80;99.90;;;;;;5066768;28;20184;-71
2022/05/07 02:51:10;;;;;;;7.20;5.00;;;9.70;99.90;;;;;;5067107;28;20439;-71
2022/05/07 02:53:35;;;;;;;6.23;5.17;;;9.70;99.90;;;;;;5065658;28;20886;-70
2022/05/07 02:56:01;;;;;;;8.07;5.40;;;9.80;99.90;;;;;;5064937;28;20188;-70
2022/05/07 02:58:26;;;;;;;6.70;4.87;;;9.80;99.90;;;;;;5066147;28;20187;-71
2022/05/07 03:00:53;;;;;;;8.23;4.87;;;9.90;99.90;;;;;;5062828;28;21051;-70
2022/05/07 03:03:19;;;;;;;8.70;4.90;;;10.00;99.90;;;;;;5065922;28;20220;-71
2022/05/07 03:05:44;;;;;;;7.23;5.03;;;10.00;99.90;;;;;;5066567;28;20606;-69
2022/05/07 03:08:10;;;;;;;6.90;4.97;;;9.90;99.90;;;;;;5067419;28;20750;-70
2022/05/07 03:10:36;;;;;;;6.73;4.07;;;9.90;99.90;;;;;;5066124;28;20668;-71
2022/05/07 03:13:02;;;;;;;8.10;5.27;;;9.80;99.90;;;;;;5066580;28;20180;-71
2022/05/07 03:15:28;;;;;;;7.93;4.67;;;9.90;99.90;;;;;;5066511;28;20458;-71
2022/05/07 03:17:53;;;;;;;6.27;4.60;;;9.80;99.90;;;;;;5066750;28;21289;-70
2022/05/07 03:20:19;;;;;;;7.67;4.47;;;9.80;99.90;;;;;;5066119;28;20667;-70
2022/05/07 03:22:45;;;;;;;6.60;5.03;;;9.80;99.90;;;;;;5066837;28;20235;-70
2022/05/07 03:25:11;;;;;;;6.80;5.30;;;9.80;99.90;;;;;;5065876;28;20241;-70
2022/05/07 03:27:37;;;;;;;9.40;5.50;;;9.80;99.90;;;;;;5066661;28;20947;-70
2022/05/07 03:30:04;;;;;;;7.97;5.30;;;9.80;99.90;;;;;;5065200;28;20438;-70
2022/05/07 03:32:30;;;;;;;4.87;4.37;;;9.80;99.90;;;;;;5065003;28;20188;-71
2022/05/07 03:34:57;;;;;;;10.43;4.80;;;9.70;99.90;;;;;;5067275;28;20799;-70
2022/05/07 03:37:23;;;;;;;6.90;5.07;;;9.70;99.90;;;;;;5066156;28;20227;-70
2022/05/07 03:39:50;;;;;;;7.93;4.90;;;9.70;99.90;;;;;;5066073;28;20539;-70
2022/05/07 03:42:16;;;;;;;8.97;5.30;;;9.70;99.90;;;;;;5066483;28;20557;-71
2022/05/07 03:44:42;;;;;;;7.50;5.87;;;9.70;99.90;;;;;;5067334;28;20898;-71
2022/05/07 03:47:07;;;;;;;10.97;5.40;;;9.70;99.90;;;;;;5064541;28;20438;-71
2022/05/07 03:49:33;;;;;;;5.83;4.80;;;9.60;99.90;;;;;;5066982;28;20184;-71
2022/05/07 03:54:43;;;;;;;11.10;5.57;;;9.50;99.90;;;;;;5064129;28;20568;-70
2022/05/07 03:57:11;;;;;;;5.37;4.10;;;9.50;99.90;;;;;;5066295;28;20418;-71
2022/05/07 03:59:36;;;;;;;6.10;4.40;;;9.40;99.90;;;;;;5066256;28;20177;-70
2022/05/07 04:02:02;;;;;;;7.07;5.30;;;9.00;99.90;;;;;;5064848;28;20458;-70
2022/05/07 04:04:28;;;;;;;8.90;4.43;;;9.20;99.90;;;;;;5065654;28;20169;-71
2022/05/07 04:06:53;;;;;;;4.80;4.00;;;9.20;99.90;;;;;;5065306;28;20264;-71
2022/05/07 04:09:19;;;;;;;6.57;4.50;;;8.90;99.90;;;;;;5066943;28;20168;-71
2022/05/07 04:11:44;;;;;;;6.30;4.43;;;9.20;99.90;;;;;;5068473;28;20184;-70
2022/05/07 04:14:10;;;;;;;6.20;4.43;;;9.10;99.90;;;;;;5070011;28;20226;-70
2022/05/07 04:16:35;;;;;;;8.50;4.60;;;9.00;99.90;;;;;;5069123;28;20197;-71
2022/05/07 04:19:01;;;;;;;4.90;4.40;;;9.00;99.90;;;;;;5050696;28;20177;-71
2022/05/07 04:21:26;;;;;;;10.03;4.30;;;9.00;99.90;;;;;;5067792;28;20168;-70
2022/05/07 04:23:52;;;;;;;7.07;4.07;;;9.00;99.90;;;;;;5069434;28;20223;-70
2022/05/07 04:26:17;;;;;;;7.07;4.40;;;9.00;99.90;;;;;;5067798;28;20246;-71
2022/05/07 04:28:43;;;;;;;5.87;3.90;;;9.10;99.90;;;;;;5069814;28;20185;-71
2022/05/07 04:31:08;;;;;;;7.13;3.63;;;9.20;99.90;;;;;;5068475;28;20830;-71
2022/05/07 04:33:34;;;;;;;8.00;4.17;;;9.20;99.90;;;;;;5067998;28;20241;-71
2022/05/07 04:35:59;;;;;;;4.73;4.27;;;9.20;99.90;;;;;;5068681;28;20197;-69
2022/05/07 04:38:25;;;;;;;10.17;4.70;;;9.30;99.90;;;;;;5068908;28;20195;-71
2022/05/07 04:40:50;;;;;;;6.27;4.37;;;9.30;99.90;;;;;;5068633;28;20176;-70
2022/05/07 04:43:19;;;;;;;6.00;4.47;;;9.40;99.90;;;;;;5068048;28;20231;-71
2022/05/07 04:45:45;;;;;;;6.17;4.43;;;9.40;99.90;;;;;;5068807;28;20200;-70
2022/05/07 04:48:10;;;;;;;5.90;4.20;;;9.50;99.90;;;;;;5066176;28;20526;-71
2022/05/07 04:50:36;;;;;;;8.70;4.63;;;9.60;99.90;;;;;;5069909;28;20181;-71
2022/05/07 04:53:02;;;;;;;9.20;4.20;;;9.20;99.90;;;;;;5068104;28;20660;-71
2022/05/07 04:55:27;;;;;;;6.97;5.20;;;9.80;99.90;;;;;;5068812;28;20207;-71
2022/05/07 04:57:53;;;;;;;6.90;4.33;;;9.80;99.90;;;;;;5068439;28;20255;-70
2022/05/07 05:00:18;;;;;;;10.30;4.30;;;9.90;99.90;;;;;;5069821;28;20184;-71
2022/05/07 05:02:44;;;;;;;6.40;4.47;;;9.90;99.90;;;;;;5067038;28;20578;-71
2022/05/07 05:05:10;;;;;;;10.03;4.50;;;10.00;99.90;;;;;;5069540;28;20187;-71
2022/05/07 05:07:35;;;;;;;6.17;4.80;;;10.10;99.90;;;;;;5068491;28;20188;-71
2022/05/07 05:10:02;;;;;;;5.17;4.17;;;10.30;99.90;;;;;;5069580;28;20179;-71
2022/05/07 05:12:28;;;;;;;7.90;4.93;;;10.30;99.90;;;;;;5066978;28;20258;-71
2022/05/07 05:15:03;;;;;;;7.07;4.10;;;10.30;99.90;;;;;;5068188;28;20458;-71
2022/05/07 05:17:29;;;;;;;5.50;4.30;;;10.40;99.90;;;;;;5069190;28;20418;-71
2022/05/07 05:19:55;;;;;;;5.20;4.53;;;10.60;99.90;;;;;;5062485;28;20462;-71
2022/05/07 05:22:21;;;;;;;10.80;4.50;;;10.60;99.90;;;;;;5067571;28;20454;-71
2022/05/07 05:24:47;;;;;;;6.10;4.60;;;10.70;99.90;;;;;;5066936;28;20542;-71
2022/05/07 05:27:12;;;;;;;7.40;4.60;;;10.70;99.90;;;;;;5067380;28;20181;-71
2022/05/07 05:29:38;;;;;;;8.10;4.90;;;10.80;99.90;;;;;;5068475;28;20263;-70
2022/05/07 05:32:04;;;;;;;7.60;5.07;;;10.90;99.90;;;;;;5066233;28;20247;-71
2022/05/07 05:34:29;;;;;;;4.93;4.37;;;11.10;99.90;;;;;;5068874;28;20185;-71
2022/05/07 05:36:55;;;;;;;6.43;4.63;;;11.30;99.90;;;;;;5065336;28;20422;-71
2022/05/07 05:39:20;;;;;;;8.83;4.90;;;11.40;99.90;;;;;;5068442;28;20211;-71
2022/05/07 05:41:46;;;;;;;10.13;5.27;;;11.50;99.90;;;;;;5065044;28;20172;-71
2022/05/07 05:44:12;;;;;;;6.33;4.67;;;11.60;99.90;;;;;;5069574;28;20192;-71
2022/05/07 05:46:38;;;;;;;7.93;5.80;;;11.70;99.90;;;;;;5067995;28;20537;-71
2022/05/07 05:49:04;;;;;;;11.53;5.43;;;11.90;99.90;;;;;;5068811;28;20168;-70
2022/05/07 05:51:29;;;;;;;8.63;5.47;;;11.90;99.90;;;;;;5067713;28;20169;-71
2022/05/07 05:53:55;;;;;;;10.73;5.50;;;12.00;99.90;;;;;;5066710;28;20264;-70
2022/05/07 05:56:21;;;;;;;10.03;5.77;;;12.10;99.90;;;;;;5067152;28;20196;-71
2022/05/07 05:58:46;;;;;;;12.03;5.90;;;12.30;99.90;;;;;;5069218;28;20536;-71
2022/05/07 06:01:12;;;;;;;7.87;5.93;;;12.40;99.90;;;;;;5066128;28;20283;-71
2022/05/07 06:03:38;;;;;;;13.57;6.90;;;12.50;99.90;;;;;;5067811;28;20624;-71
2022/05/07 06:06:03;;;;;;;8.37;5.80;;;12.50;99.90;;;;;;5066687;28;20196;-70
2022/05/07 06:08:30;;;;;;;9.60;5.73;;;12.70;99.90;;;;;;5068144;28;20188;-71
2022/05/07 06:10:57;;;;;;;15.63;6.17;;;12.80;99.90;;;;;;5066427;28;20188;-70
2022/05/07 06:13:24;;;;;;;8.73;5.67;;;12.90;99.90;;;;;;5067082;28;20477;-72
2022/05/07 06:15:52;;;;;;;8.43;6.40;;;13.00;99.90;;;;;;5068119;28;20434;-70
2022/05/07 06:18:22;;;;;;;9.47;5.83;;;13.10;99.90;;;;;;5067463;28;20933;-71
2022/05/07 06:20:49;;;;;;;12.67;7.83;;;13.30;99.90;;;;;;5067950;28;20898;-71
2022/05/07 06:23:15;;;;;;;8.50;6.40;;;13.40;99.90;;;;;;5065419;28;20466;-71
2022/05/07 06:28:25;;;;;;;11.10;6.40;;;13.70;99.90;;;;;;5067691;28;20397;-71
2022/05/07 06:30:51;;;;;;;16.83;6.70;;;13.90;99.90;;;;;;5067556;28;20625;-71
2022/05/07 06:33:17;;;;;;;12.17;6.73;;;14.00;99.90;;;;;;5066707;28;20633;-71
2022/05/07 06:35:43;;;;;;;8.73;6.50;;;14.00;99.90;;;;;;5068110;28;20506;-71
2022/05/07 06:38:09;;;;;;;8.67;6.30;;;14.10;99.90;;;;;;5067690;28;20172;-71
2022/05/07 06:40:38;;;;;;;8.30;6.10;;;14.30;99.90;;;;;;5067813;28;20501;-71
2022/05/07 06:43:08;;;;;;;12.23;6.37;;;14.50;99.90;;;;;;5061174;28;20454;-71
2022/05/07 06:45:33;;;;;;;12.05;6.00;;;14.70;99.90;;;;;;5067190;28;20406;-71
2022/05/07 06:48:00;;;;;;;8.97;6.40;;;14.50;99.90;;;;;;5065068;28;20568;-71
2022/05/07 06:50:25;;;;;;;8.33;5.93;;;14.80;99.90;;;;;;5068353;28;20542;-71
2022/05/07 06:52:51;;;;;;;11.10;6.67;;;14.80;99.90;;;;;;5067062;28;20439;-72
2022/05/07 06:55:19;;;;;;;10.17;6.57;;;15.40;99.90;;;;;;5065739;28;20205;-72
2022/05/07 06:57:46;;;;;;;10.40;6.63;;;15.20;99.90;;;;;;5065210;28;20173;-71
2022/05/07 07:00:13;;;;;;;8.83;6.27;;;15.30;99.90;;;;;;5066861;28;20465;-71
2022/05/07 07:02:40;;;;;;;10.90;6.70;;;15.50;99.90;;;;;;5066483;28;20449;-71
2022/05/07 07:05:06;;;;;;;16.57;6.40;;;15.60;99.90;;;;;;5060511;28;20426;-71
2022/05/07 07:07:32;;;;;;;11.60;7.30;;;15.70;98.50;;;;;;5068066;28;20402;-70
2022/05/07 07:09:57;;;;;;;9.60;7.23;;;16.00;92.50;;;;;;5064859;28;20434;-71
2022/05/07 07:12:23;;;;;;;9.20;6.80;;;16.40;92.10;;;;;;5064847;28;20280;-71
2022/05/07 07:14:50;;;;;;;11.50;6.80;;;16.60;93.00;;;;;;5061123;28;20196;-71
2022/05/07 07:17:18;;;;;;;12.00;7.27;;;16.80;92.20;;;;;;5064503;28;20208;-71
2022/05/07 07:19:44;;;;;;;9.07;6.70;;;17.10;83.20;;;;;;5062696;28;20518;-71
2022/05/07 07:22:09;;;;;;;8.73;7.07;;;17.20;86.80;;;;;;5063037;28;20644;-71
2022/05/07 07:24:36;;;;;;;11.90;7.10;;;17.40;82.90;;;;;;5062303;28;21037;-71
2022/05/07 07:27:02;;;;;;;8.40;6.70;;;17.70;74.70;;;;;;5064658;28;20255;-71
2022/05/07 07:29:28;;;;;;;11.23;7.40;;;18.00;75.90;;;;;;5066325;28;20644;-71
2022/05/07 07:31:53;;;;;;;11.23;7.80;;;19.30;63.70;;;;;;5064806;28;20626;-70
2022/05/07 07:34:21;;;;;;;9.80;7.33;;;18.10;63.10;;;;;;5065145;28;20675;-70
2022/05/07 07:36:46;;;;;;;11.77;7.57;;;18.00;57.10;;;;;;5065375;28;20206;-71
2022/05/07 07:39:12;;;;;;;8.17;6.77;;;18.10;59.70;;;;;;5066716;28;20419;-72
2022/05/07 07:41:37;;;;;;;9.13;6.93;;;18.30;59.90;;;;;;5066530;28;20168;-71
2022/05/07 07:44:03;;;;;;;12.20;7.50;;;18.60;59.70;;;;;;5067157;28;20196;-71
2022/05/07 07:49:13;;;;;;;7.90;6.57;;;18.90;58.20;;;;;;5071966;28;20674;-72
2022/05/07 07:51:38;;;;;;;11.60;6.70;;;19.30;54.60;;;;;;5070400;28;20422;-72
2022/05/07 07:54:04;;;;;;;7.80;6.20;;;19.60;54.20;;;;;;5070957;28;20172;-72
2022/05/07 07:56:30;;;;;;;10.23;7.30;;;19.90;46.30;;;;;;5070559;28;20283;-72
2022/05/07 07:58:56;;;;;;;8.73;6.43;;;20.10;46.50;;;;;;5070940;28;20558;-71
2022/05/07 08:01:21;;;;;;;8.60;7.17;;;20.40;46.80;;;;;;5069638;28;20643;-71
2022/05/07 08:03:47;;;;;;;10.00;6.43;;;20.70;47.00;;;;;;5071044;28;20204;-72
2022/05/07 08:06:12;;;;;;;9.07;6.20;;;21.00;47.20;;;;;;5070994;28;20208;-72
2022/05/07 08:11:40;;;;;;;7.77;6.00;;;21.10;42.40;;;;;;5070435;28;20246;-72
2022/05/07 08:14:09;;;;;;;15.53;6.60;;;21.30;47.00;;;;;;5051151;28;20928;-72
2022/05/07 08:16:36;;;;;;;10.40;7.50;;;21.40;39.20;;;;;;5069275;28;20577;-72
2022/05/07 08:19:03;;;;;;;12.03;6.77;;;21.60;41.00;;;;;;5070310;28;20418;-72
2022/05/07 08:21:29;;;;;;;8.30;6.67;;;21.80;43.30;;;;;;5070342;28;20432;-70
2022/05/07 08:23:54;;;;;;;8.60;6.50;;;22.00;32.70;;;;;;5071157;28;20453;-70
2022/05/07 08:26:20;;;;;;;9.83;6.37;;;22.60;33.90;;;;;;5070615;28;20304;-70
2022/05/07 08:28:46;;;;;;;9.20;6.07;;;23.60;30.00;;;;;;5070673;28;20597;-70
2022/05/07 08:31:12;;;;;;;8.03;6.17;;;24.60;26.10;;;;;;5069335;28;20179;-70
2022/05/07 08:33:41;;;;;;;15.10;8.57;;;25.80;18.90;;;;;;5070377;28;20732;-71
2022/05/07 08:36:08;;;;;;;10.70;6.03;;;27.00;14.70;;;;;;5070681;28;20212;-70
2022/05/07 08:38:34;;;;;;;9.30;6.40;;;27.70;11.10;;;;;;5070445;28;20406;-71
2022/05/07 08:41:00;;;;;;;8.33;5.70;;;28.30;3.00;;;;;;5069653;28;20331;-69
2022/05/07 08:43:31;;;;;;;7.00;5.45;;;29.00;1.00;;;;;;5064097;28;20545;-71
2022/05/07 08:45:57;;;;;;;8.50;6.30;;;29.80;1.00;;;;;;5068748;28;20653;-70
2022/05/07 08:48:22;;;;;;;9.05;5.47;;;30.40;1.00;;;;;;5068889;28;20234;-71
2022/05/07 08:50:49;;;;;;;9.65;6.68;;;30.80;1.00;;;;;;5069231;28;20168;-71
2022/05/07 08:53:14;;;;;;;9.05;5.38;;;31.40;1.00;;;;;;5069949;28;20526;-70
2022/05/07 08:55:40;;;;;;;8.77;5.65;;;31.70;1.00;;;;;;5066265;28;20202;-72
2022/05/07 08:58:06;;;;;;;12.45;6.32;;;32.10;1.00;;;;;;5069895;28;20210;-72
2022/05/07 09:00:33;;;;;;;8.00;6.22;;;32.20;1.00;;;;;;5069892;28;20236;-72
2022/05/07 09:03:02;;;;;;;9.15;6.05;;;32.70;1.00;;;;;;5069152;28;20642;-72
2022/05/07 09:05:36;;;;;;;6.30;5.60;;;32.80;1.00;;;;;;5070230;28;20190;-72
2022/05/07 09:08:03;;;;;;;6.32;5.20;;;32.90;1.00;;;;;;5070107;28;20175;-72
2022/05/07 09:10:30;;;;;;;8.23;5.32;;;33.40;1.00;;;;;;5067795;28;20163;-72
2022/05/07 09:13:10;;;;;;;7.05;5.45;;;34.00;1.00;;;;;;5049323;28;20650;-72
2022/05/07 09:15:50;;;;;;;7.40;5.30;;;34.50;1.00;;;;;;5060149;28;20724;-72
2022/05/07 09:18:18;;;;;;;9.75;5.70;;;34.50;1.00;;;;;;5066859;28;20856;-72
2022/05/07 09:20:43;;;;;;;10.18;5.55;;;34.40;1.00;;;;;;5066711;28;20569;-71
2022/05/07 09:23:12;;;;;;;7.25;5.18;;;34.60;1.00;;;;;;5067475;28;20219;-70
2022/05/07 09:25:46;;;;;;;10.35;5.63;;;35.10;1.00;;;;;;5068632;28;20184;-72
2022/05/07 09:28:11;;;;;;;6.47;4.90;;;35.50;1.00;;;;;;5069120;28;20160;-72
2022/05/07 09:30:38;;;;;;;8.85;5.05;;;36.00;1.00;;;;;;5068625;28;20566;-72
2022/05/07 09:33:06;;;;;;;7.68;5.63;;;36.70;1.00;;;;;;5068642;28;20650;-72
2022/05/07 09:35:51;;;;;;;6.32;5.32;;;36.40;1.00;;;;;;5069251;28;20515;-72
2022/05/07 09:38:24;;;;;;;7.25;5.50;;;34.90;1.00;;;;;;5069216;28;20653;-72
2022/05/07 09:40:50;;;;;;;8.90;5.45;;;33.00;1.00;;;;;;5068662;28;22123;-71
2022/05/07 09:43:17;;;;;;;6.75;4.85;;;31.70;1.00;;;;;;5068325;28;20200;-71
2022/05/07 09:45:44;;;;;;;7.53;5.13;;;30.60;1.00;;;;;;5069272;28;20214;-71
2022/05/07 09:48:12;;;;;;;7.38;5.22;;;29.60;1.00;;;;;;5067626;28;20168;-71
2022/05/07 09:58:40;;;;;;;6.38;4.30;;;33.70;1.00;;;;;;5069131;28;20178;-71
2022/05/07 10:01:20;;;;;;;6.10;4.57;;;34.30;1.00;;;;;;5067489;28;20187;-70
2022/05/07 10:04:06;;;;;;;8.43;4.00;;;33.00;1.00;;;;;;5068626;28;20199;-72
2022/05/07 10:06:43;;;;;;;5.38;3.90;;;31.30;1.00;;;;;;5068552;28;20184;-71
2022/05/07 10:09:25;;;;;;;8.13;4.20;;;30.30;1.00;;;;;;5068226;28;20179;-72
2022/05/07 10:11:55;;;;;;;5.38;3.97;;;29.80;1.00;;;;;;5067281;28;20180;-70
2022/05/07 10:14:30;;;;;;;5.82;3.20;;;29.80;1.00;;;;;;5068485;28;20569;-71
2022/05/07 10:16:59;;;;;;;4.28;3.00;;;29.30;1.00;;;;;;5068229;28;20174;-71
2022/05/07 10:19:45;;;;;;;8.90;3.65;;;28.40;1.00;;;;;;5068267;28;20171;-71
2022/05/07 10:22:21;;;;;;;5.07;3.63;;;27.80;1.00;;;;;;5067285;28;20203;-71
2022/05/07 10:24:47;;;;;;;10.70;4.97;;;27.50;1.00;;;;;;5068154;28;20252;-71
2022/05/07 10:27:29;;;;;;;8.13;4.93;;;27.20;1.00;;;;;;5068139;28;20199;-68
2022/05/07 10:30:07;;;;;;;7.57;4.40;;;27.10;1.00;;;;;;5068150;28;20188;-71
2022/05/07 10:32:47;;;;;;;6.80;3.60;;;28.90;1.00;;;;;;5066695;28;20669;-71
2022/05/07 10:35:14;;;;;;;7.93;4.25;;;30.80;1.00;;;;;;5067733;28;20203;-71
2022/05/07 10:37:41;;;;;;;4.82;3.45;;;32.90;1.00;;;;;;5068207;28;20192;-71
2022/05/07 10:40:13;;;;;;;8.63;3.97;;;34.70;1.00;;;;;;5067494;28;20637;-72
2022/05/07 10:42:39;;;;;;;4.38;3.50;;;35.10;1.00;;;;;;5058944;28;20242;-71
2022/05/07 10:45:06;;;;;;;4.75;3.17;;;35.90;1.00;;;;;;5067807;28;20219;-72
2022/05/07 10:47:32;;;;;;;5.50;3.50;;;36.60;1.00;;;;;;5066552;28;20167;-71
2022/05/07 10:50:06;;;;;;;5.20;3.00;;;36.90;1.00;;;;;;5067861;28;20202;-72
2022/05/07 10:52:33;;;;;;;9.45;3.25;;;37.10;1.00;;;;;;5065539;28;20658;-72
2022/05/07 10:55:17;;;;;;;4.35;3.17;;;36.40;1.00;;;;;;5067525;28;20200;-71
2022/05/07 10:57:47;;;;;;;4.65;3.40;;;34.90;1.00;;;;;;5067548;28;20163;-71
2022/05/07 11:00:16;;;;;;;3.70;3.00;;;34.60;1.00;;;;;;5067957;28;20180;-72
2022/05/07 11:02:42;;;;;;;6.35;3.20;;;34.50;1.00;;;;;;5065510;28;20203;-71
2022/05/07 11:05:07;;;;;;;8.80;3.60;;;34.30;1.00;;;;;;5066138;28;20263;-71
2022/05/07 11:07:33;;;;;;;3.60;3.20;;;35.40;1.00;;;;;;5066447;28;20593;-71
2022/05/07 11:09:59;;;;;;;5.43;3.38;;;35.40;1.00;;;;;;5066020;28;20238;-70
2022/05/07 11:12:26;;;;;;;3.80;3.00;;;33.80;1.00;;;;;;5066411;28;20519;-72
2022/05/07 11:14:52;;;;;;;5.47;3.53;;;32.10;1.00;;;;;;5066552;28;20692;-70
2022/05/07 11:17:31;;;;;;;4.45;3.20;;;31.20;1.00;;;;;;5067387;28;20602;-72
2022/05/07 11:19:57;;;;;;;6.80;3.38;;;31.60;1.00;;;;;;5066056;28;20186;-71
2022/05/07 11:22:32;;;;;;;7.43;3.35;;;33.10;1.00;;;;;;5061381;28;20618;-71
2022/05/07 11:24:59;;;;;;;6.60;2.95;;;33.10;1.00;;;;;;5067459;28;20645;-71
2022/05/07 11:27:29;;;;;;;5.85;3.83;;;34.20;1.00;;;;;;5067405;28;20646;-72
2022/05/07 11:29:54;;;;;;;5.00;3.47;;;34.50;1.00;;;;;;5067366;28;20355;-72
2022/05/07 11:32:21;;;;;;;4.57;3.47;;;34.60;1.00;;;;;;5065970;28;20553;-71
2022/05/07 11:34:46;;;;;;;6.55;3.40;;;34.40;1.00;;;;;;5066928;28;20583;-71
2022/05/07 11:37:23;;;;;;;6.43;3.70;;;33.60;1.00;;;;;;5067682;28;20251;-71
2022/05/07 11:39:54;;;;;;;11.90;4.13;;;32.40;1.00;;;;;;5065170;28;20265;-71
2022/05/07 11:42:38;;;;;;;5.90;3.47;;;31.00;1.00;;;;;;5066982;28;20210;-71
2022/05/07 11:45:30;;;;;;;7.47;3.90;;;29.70;1.00;;;;;;5067374;28;20642;-70
2022/05/07 11:48:04;;;;;;;5.43;3.00;;;30.60;1.00;;;;;;5066699;28;20174;-70
2022/05/07 11:50:41;;;;;;;5.80;3.40;;;33.70;1.00;;;;;;5067652;28;20165;-71
2022/05/07 11:53:15;;;;;;;8.60;3.30;;;35.10;1.00;;;;;;5059468;28;20188;-71
2022/05/07 11:55:42;;;;;;;4.60;3.30;;;34.30;1.00;;;;;;5066692;28;20188;-70
2022/05/07 11:58:22;;;;;;;4.15;2.65;;;34.50;1.00;;;;;;5066773;28;20160;-71
2022/05/07 12:00:55;;;;;;;4.45;2.80;;;34.00;1.00;;;;;;5066806;28;20180;-71
2022/05/07 12:03:26;;;;;;;6.35;3.30;;;32.50;1.00;;;;;;5066067;28;20249;-70
2022/05/07 12:05:53;;;;;;;5.10;3.50;;;31.90;1.00;;;;;;5066662;28;20206;-71
2022/05/07 12:08:21;;;;;;;4.63;3.03;;;31.90;1.00;;;;;;5066833;28;20186;-71
2022/05/07 12:10:49;;;;;;;4.03;2.95;;;33.60;1.00;;;;;;5066724;28;20179;-71
2022/05/07 12:13:19;;;;;;;4.90;3.53;;;35.40;1.00;;;;;;5066170;28;20544;-72
2022/05/07 12:18:30;;;;;;;5.18;3.22;;;37.40;1.00;;;;;;5066908;28;20179;-71
2022/05/07 12:20:56;;;;;;;8.30;3.17;;;38.60;1.00;;;;;;5066544;28;20310;-70
2022/05/07 12:31:35;;;;;;;4.57;3.10;;;37.20;1.00;;;;;;5064670;28;20264;-72
2022/05/07 12:34:00;;;;;;;5.20;2.97;;;34.30;1.00;;;;;;5070107;28;20657;-72
2022/05/07 12:36:26;;;;;;;5.95;3.20;;;33.00;1.00;;;;;;5070145;28;20253;-71
2022/05/07 12:38:52;;;;;;;4.53;3.20;;;32.30;1.00;;;;;;5069831;28;20246;-71
2022/05/07 12:41:18;;;;;;;4.13;3.10;;;31.90;1.00;;;;;;5069877;28;20183;-71
2022/05/07 12:43:44;;;;;;;6.18;3.42;;;33.10;1.00;;;;;;5066700;28;20265;-72
2022/05/07 12:46:10;;;;;;;4.93;2.95;;;35.40;1.00;;;;;;5068970;28;20826;-71
2022/05/07 12:48:36;;;;;;;4.20;3.13;;;36.60;1.00;;;;;;5070018;28;20203;-71
2022/05/07 12:51:01;;;;;;;6.65;2.70;;;38.00;1.00;;;;;;5069799;28;20245;-69
2022/05/07 12:53:27;;;;;;;5.95;2.97;;;38.90;1.00;;;;;;5069787;28;20184;-71
2022/05/07 12:55:52;;;;;;;4.70;2.95;;;38.40;1.00;;;;;;5069675;28;20203;-71
2022/05/07 12:58:18;;;;;;;5.95;3.05;;;37.60;1.00;;;;;;5069362;28;20657;-72
2022/05/07 13:00:44;;;;;;;6.47;3.17;;;36.20;1.00;;;;;;5069471;28;20178;-71
2022/05/07 13:03:10;;;;;;;3.67;2.78;;;35.10;1.00;;;;;;5068351;28;20238;-70
2022/05/07 13:05:36;;;;;;;7.72;2.95;;;34.70;1.00;;;;;;5069594;28;20555;-71
2022/05/07 13:08:06;;;;;;;5.13;2.80;;;34.40;1.00;;;;;;5070052;28;20168;-72
2022/05/07 13:10:35;;;;;;;4.35;2.97;;;33.70;1.00;;;;;;5068950;28;20225;-71
2022/05/07 13:13:01;;;;;;;3.92;2.80;;;32.90;1.00;;;;;;5068841;28;20624;-71
2022/05/07 13:15:30;;;;;;;4.82;2.92;;;31.80;1.00;;;;;;5069659;28;20191;-71
2022/05/07 13:17:57;;;;;;;5.38;3.22;;;30.90;1.00;;;;;;5068745;28;20198;-71
2022/05/07 13:20:27;;;;;;;5.47;3.20;;;30.00;1.00;;;;;;5064607;28;20168;-71
2022/05/07 13:22:53;;;;;;;5.57;3.80;;;29.40;1.00;;;;;;5068335;28;20195;-71
2022/05/07 13:25:19;;;;;;;5.70;2.80;;;30.20;1.00;;;;;;5068374;28;20249;-71
2022/05/07 13:27:46;;;;;;;4.07;2.88;;;30.70;1.00;;;;;;5053890;28;20168;-71
2022/05/07 13:30:14;;;;;;;5.22;2.90;;;31.00;1.00;;;;;;5068880;28;20668;-71